createdAt,value
2019-03-04T00:03:05.925Z,11.07
2019-03-04T00:08:07.609Z,10.87
2019-03-04T00:13:09.935Z,8.67
2019-03-04T00:18:11.661Z,8.37
2019-03-04T00:23:13.445Z,9.50
2019-03-04T00:28:16.876Z,8.27
2019-03-04T00:33:19.128Z,8.23
2019-03-04T00:38:22.159Z,8.37
2019-03-04T00:43:24.046Z,7.73
2019-03-04T00:48:28.974Z,8.30
2019-03-04T00:53:30.672Z,8.53
2019-03-04T00:58:32.373Z,8.20
2019-03-04T01:03:34.400Z,7.70
2019-03-04T01:08:36.452Z,7.10
2019-03-04T01:13:38.184Z,7.43
2019-03-04T01:18:40.190Z,7.10
2019-03-04T01:23:41.943Z,7.47
2019-03-04T01:28:44.756Z,8.17
2019-03-04T01:33:46.444Z,7.53
2019-03-04T01:38:48.214Z,6.43
2019-03-04T01:43:49.908Z,7.13
2019-03-04T01:48:51.657Z,7.83
2019-03-04T01:53:53.372Z,6.30
2019-03-04T01:58:55.195Z,6.87
2019-03-04T02:03:56.890Z,6.47
2019-03-04T02:08:58.650Z,7.03
2019-03-04T02:14:00.347Z,7.83
2019-03-04T02:19:02.022Z,7.37
2019-03-04T02:24:23.156Z,6.80
2019-03-04T02:29:24.910Z,5.90
2019-03-04T02:34:26.586Z,6.77
2019-03-04T02:39:28.267Z,6.90
2019-03-04T02:44:30.112Z,6.80
2019-03-04T02:49:31.910Z,6.40
2019-03-04T02:54:33.677Z,6.20
2019-03-04T02:59:35.450Z,5.67
2019-03-04T03:04:37.231Z,6.20
2019-03-04T03:09:38.919Z,6.00
2019-03-04T03:14:40.706Z,6.00
2019-03-04T03:19:42.469Z,5.43
2019-03-04T03:24:44.235Z,5.10
2019-03-04T03:29:46.014Z,5.70
2019-03-04T03:34:47.711Z,5.60
2019-03-04T03:39:49.419Z,5.03
2019-03-04T03:44:51.146Z,5.40
2019-03-04T03:49:52.924Z,5.73
2019-03-04T03:54:54.699Z,5.80
2019-03-04T03:59:56.470Z,6.30
2019-03-04T04:04:58.255Z,5.67
2019-03-04T04:10:00.030Z,5.07
2019-03-04T04:15:01.820Z,5.23
2019-03-04T04:20:03.774Z,4.73
2019-03-04T04:25:05.581Z,5.00
2019-03-04T04:30:08.046Z,4.57
2019-03-04T04:35:09.722Z,4.47
2019-03-04T04:40:11.542Z,4.17
2019-03-04T04:45:13.296Z,5.00
2019-03-04T04:50:15.073Z,4.83
2019-03-04T04:55:16.833Z,4.87
2019-03-04T05:00:18.563Z,5.00
2019-03-04T05:05:20.292Z,5.00
2019-03-04T05:10:22.077Z,5.10
2019-03-04T05:15:23.840Z,4.20
2019-03-04T05:20:25.620Z,4.60
2019-03-04T05:25:27.395Z,4.13
2019-03-04T05:30:29.174Z,4.90
2019-03-04T05:35:30.853Z,4.70
2019-03-04T05:40:32.601Z,4.50
2019-03-04T05:45:34.399Z,4.90
2019-03-04T05:50:36.185Z,4.70
2019-03-04T05:55:37.945Z,5.23
2019-03-04T06:00:41.214Z,4.60
2019-03-04T06:05:43.735Z,4.80
2019-03-04T06:10:45.532Z,4.77
2019-03-04T06:15:47.319Z,4.37
2019-03-04T06:20:49.090Z,6.93
2019-03-04T06:25:50.859Z,5.23
2019-03-04T06:30:52.637Z,4.57
2019-03-04T06:35:54.329Z,3.87
2019-03-04T06:40:56.108Z,3.60
2019-03-04T06:45:57.866Z,4.60
2019-03-04T06:50:59.871Z,4.30
2019-03-04T06:56:09.554Z,4.80
2019-03-04T07:01:23.289Z,4.57
2019-03-04T07:06:25.037Z,4.13
2019-03-04T07:11:26.929Z,3.97
2019-03-04T07:16:28.693Z,4.13
2019-03-04T07:21:30.480Z,3.60
2019-03-04T07:26:32.265Z,3.97
2019-03-04T07:31:34.060Z,4.57
2019-03-04T07:36:35.814Z,4.23
2019-03-04T07:41:49.025Z,3.90
2019-03-04T07:46:50.724Z,3.93
2019-03-04T07:51:55.805Z,4.20
2019-03-04T07:56:58.050Z,4.03
2019-03-04T08:01:59.850Z,2.80
2019-03-04T08:07:19.718Z,4.47
2019-03-04T08:12:39.810Z,5.10
2019-03-04T08:17:42.343Z,4.53
2019-03-04T08:22:45.055Z,3.80
2019-03-04T08:27:46.818Z,4.07
2019-03-04T08:32:48.493Z,3.30
2019-03-04T08:37:50.170Z,3.97
2019-03-04T08:42:51.870Z,4.00
2019-03-04T08:47:53.548Z,3.23
2019-03-04T08:52:55.244Z,3.80
2019-03-04T08:57:56.934Z,3.30
2019-03-04T09:02:58.633Z,3.43
2019-03-04T09:08:00.341Z,3.20
2019-03-04T09:13:02.033Z,3.50
2019-03-04T09:18:03.720Z,3.50
2019-03-04T09:23:05.421Z,3.20
2019-03-04T09:28:07.115Z,3.40
2019-03-04T09:33:08.801Z,3.80
2019-03-04T09:38:10.497Z,3.23
2019-03-04T09:43:12.188Z,3.40
2019-03-04T09:48:13.881Z,3.43
2019-03-04T09:53:15.575Z,3.30
2019-03-04T09:58:17.265Z,3.20
2019-03-04T10:03:22.447Z,3.80
2019-03-04T10:08:49.656Z,3.27
2019-03-04T10:13:54.873Z,2.63
2019-03-04T10:19:19.033Z,3.47
2019-03-04T10:24:34.871Z,2.90
2019-03-04T10:29:56.097Z,2.77
2019-03-04T10:35:17.233Z,2.90
2019-03-04T10:40:25.461Z,2.80
2019-03-04T10:45:36.666Z,2.60
2019-03-04T10:50:38.369Z,2.33
2019-03-04T10:55:42.243Z,2.60
2019-03-04T11:00:43.560Z,2.70
2019-03-04T11:05:45.486Z,2.27
2019-03-04T11:10:47.186Z,2.43
2019-03-04T11:15:48.910Z,2.50
2019-03-04T11:20:50.602Z,2.57
2019-03-04T11:25:52.314Z,2.23
2019-03-04T11:30:54.012Z,2.50
2019-03-04T11:35:55.710Z,2.53
2019-03-04T11:40:57.412Z,2.30
2019-03-04T11:45:59.109Z,2.20
2019-03-04T11:51:00.801Z,1.73
2019-03-04T11:56:02.607Z,1.90
2019-03-04T12:01:13.393Z,1.23
2019-03-04T12:06:15.082Z,2.70
2019-03-04T12:11:16.786Z,2.20
2019-03-04T12:16:18.485Z,2.97
2019-03-04T12:21:20.474Z,2.13
2019-03-04T12:26:22.174Z,2.60
2019-03-04T12:31:28.301Z,2.17
2019-03-04T12:36:29.654Z,2.33
2019-03-04T12:41:31.360Z,2.20
2019-03-04T12:46:33.056Z,2.27
2019-03-04T12:51:34.755Z,2.03
2019-03-04T12:56:36.456Z,2.10
2019-03-04T13:01:38.282Z,0.80
2019-03-04T13:06:39.976Z,1.23
2019-03-04T13:11:41.688Z,0.93
2019-03-04T13:16:43.400Z,2.07
2019-03-04T13:21:45.124Z,2.40
2019-03-04T13:26:46.909Z,2.17
2019-03-04T13:31:48.669Z,2.57
2019-03-04T13:36:50.366Z,2.60
2019-03-04T13:41:52.086Z,2.50
2019-03-04T13:46:53.825Z,2.43
2019-03-04T13:51:55.509Z,2.63
2019-03-04T13:56:57.218Z,2.70
2019-03-04T14:01:58.942Z,1.97
2019-03-04T14:07:00.713Z,2.43
2019-03-04T14:12:02.406Z,2.33
2019-03-04T14:17:04.236Z,2.37
2019-03-04T14:22:06.044Z,2.30
2019-03-04T14:27:07.755Z,2.23
2019-03-04T14:32:09.497Z,0.97
2019-03-04T14:37:11.201Z,1.63
2019-03-04T14:42:12.967Z,2.50
2019-03-04T14:47:14.712Z,2.93
2019-03-04T14:52:16.500Z,2.70
2019-03-04T14:57:18.203Z,2.10
2019-03-04T15:02:19.897Z,1.43
2019-03-04T15:07:21.612Z,2.83
2019-03-04T15:12:23.308Z,1.83
2019-03-04T15:17:28.673Z,2.20
2019-03-04T15:22:34.779Z,2.67
2019-03-04T15:27:33.964Z,2.63
2019-03-04T15:32:35.743Z,2.70
2019-03-04T15:37:37.437Z,3.30
2019-03-04T15:42:39.379Z,3.47
2019-03-04T15:47:41.106Z,3.30
2019-03-04T15:52:42.828Z,3.07
2019-03-04T15:57:44.615Z,2.77
2019-03-04T16:02:46.341Z,3.60
2019-03-04T16:07:48.077Z,2.90
2019-03-04T16:12:49.980Z,2.90
2019-03-04T16:17:51.725Z,3.00
2019-03-04T16:22:53.429Z,3.10
2019-03-04T16:27:59.617Z,2.80
2019-03-04T16:33:01.324Z,2.70
2019-03-04T16:38:03.037Z,3.37
2019-03-04T16:43:04.788Z,3.20
2019-03-04T16:48:06.494Z,3.87
2019-03-04T16:53:08.485Z,3.60
2019-03-04T16:58:10.183Z,3.47
2019-03-04T17:03:12.109Z,3.97
2019-03-04T17:08:13.829Z,4.13
2019-03-04T17:13:15.599Z,4.77
2019-03-04T17:18:17.570Z,4.90
2019-03-04T17:23:19.456Z,4.77
2019-03-04T17:28:21.275Z,4.93
2019-03-04T17:33:23.081Z,4.20
2019-03-04T17:38:27.938Z,4.73
2019-03-04T17:43:30.240Z,4.77
2019-03-04T17:48:32.005Z,4.27
2019-03-04T17:53:33.776Z,4.73
2019-03-04T17:58:35.570Z,4.83
2019-03-04T18:03:37.377Z,4.87
2019-03-04T18:08:39.082Z,4.60
2019-03-04T18:13:41.126Z,4.80
2019-03-04T18:18:42.871Z,3.90
2019-03-04T18:23:44.577Z,4.60
2019-03-04T18:29:05.810Z,2.73
2019-03-04T18:34:27.062Z,4.70
2019-03-04T18:39:51.269Z,4.83
2019-03-04T18:45:03.675Z,2.77
2019-03-04T18:50:09.770Z,4.47
2019-03-04T18:55:11.689Z,4.30
2019-03-04T19:00:15.174Z,3.30
2019-03-04T19:05:19.152Z,3.63
2019-03-04T19:10:23.507Z,3.47
2019-03-04T19:15:25.207Z,4.40
2019-03-04T19:20:26.950Z,4.40
2019-03-04T19:25:28.660Z,4.00
2019-03-04T19:30:30.476Z,4.33
2019-03-04T19:35:33.070Z,3.60
2019-03-04T19:40:45.326Z,3.57
2019-03-04T19:45:44.572Z,3.30
2019-03-04T19:50:46.276Z,3.90
2019-03-04T19:55:50.943Z,3.70
2019-03-04T20:00:52.606Z,3.57
2019-03-04T20:05:54.396Z,3.80
2019-03-04T20:10:56.247Z,3.90
2019-03-04T20:15:58.078Z,4.00
2019-03-04T20:21:00.050Z,4.87
2019-03-04T20:26:01.877Z,4.23
2019-03-04T20:31:03.894Z,4.07
2019-03-04T20:36:05.656Z,4.27
2019-03-04T20:41:07.439Z,4.13
2019-03-04T20:46:09.205Z,4.77
2019-03-04T20:51:10.898Z,4.30
2019-03-04T20:56:12.670Z,3.73
2019-03-04T21:01:14.634Z,4.07
2019-03-04T21:06:16.820Z,3.80
2019-03-04T21:11:18.642Z,3.10
2019-03-04T21:16:20.396Z,3.20
2019-03-04T21:21:22.161Z,3.17
2019-03-04T21:26:25.062Z,2.60
2019-03-04T21:31:46.330Z,2.90
2019-03-04T21:37:07.548Z,2.43
2019-03-04T21:42:21.126Z,2.60
2019-03-04T21:47:33.565Z,2.50
2019-03-04T21:52:56.716Z,2.23
2019-03-04T21:57:59.938Z,2.10
2019-03-04T22:03:29.010Z,2.07
2019-03-04T22:08:30.588Z,2.13
2019-03-04T22:13:42.022Z,2.50
2019-03-04T22:18:44.715Z,2.30
2019-03-04T22:23:48.384Z,2.40
2019-03-04T22:28:50.598Z,2.20
2019-03-04T22:33:52.610Z,2.07
2019-03-04T22:38:54.356Z,2.30
2019-03-04T22:43:56.539Z,1.93
2019-03-04T22:48:58.234Z,2.13
2019-03-04T22:54:00.454Z,2.10
2019-03-04T22:59:02.811Z,2.47
2019-03-04T23:04:30.430Z,3.30
2019-03-04T23:09:34.419Z,2.73
2019-03-04T23:14:36.628Z,2.70
2019-03-04T23:19:39.794Z,2.80
2019-03-04T23:24:41.547Z,2.20
2019-03-04T23:29:43.972Z,1.93
2019-03-04T23:34:45.790Z,2.13
2019-03-04T23:39:47.455Z,1.50
2019-03-04T23:44:49.207Z,1.80
2019-03-04T23:50:13.262Z,1.17
2019-03-04T23:55:16.494Z,0.90
